»·PEaware :: N71649 KCMA-KPMD

N71649 :: KCMA-KPMD

FLIGHT INFORMATION

Flight Status: Arrived
Operator: Privately registered:
United States
More flights under this callsign
Pilot: Ke L. (11649)
Aircraft: CESSNA 182 SKYLANE
(C182)
More flights by this aircraft type
Origin: KCMA Camarillo
United States
Destination: KPMD Palmdale AF Plant 42
United States
More flights between these airports :: More routes between these airports
Route: FIM V386 PMD
File this flight plan on PilotEdge
Remarks:
Altitude:
(Current/Filed)
7,000ft
Speed:
(Current/Filed)
140kts
Departed: 03-Jan-21 02:18 PM
Arrived: 03-Jan-21 03:07 PM
Distance/Time
Traveled:
56nm/0:49
Distance/Time
To Go:
Arrived

Flight Plot

Page will automatically refresh every two minutes.

Flight plan parsing failed; only flown route is shown


Map Options




Map Legend


Flown Route
Filed Route
Departure Airport
Arrival Airport
Navaid (VOR, NDB)
Fix

Horizontal Profiles

Position Reports

Time Latitude Longitude Heading Altitude Ground
Speed
03-Jan-21 14:03 34.210229 -119.078464 90 77ft 0kts
03-Jan-21 14:04 34.210229 -119.078464 90 77ft 0kts
03-Jan-21 14:05 34.210229 -119.078464 90 77ft 0kts
03-Jan-21 14:06 34.210229 -119.078464 90 77ft 0kts
03-Jan-21 14:07 34.210229 -119.078464 90 77ft 0kts
03-Jan-21 14:08 34.210229 -119.078464 90 77ft 0kts
03-Jan-21 14:09 34.210229 -119.078464 90 77ft 0kts
03-Jan-21 14:10 34.210229 -119.078464 90 77ft 0kts
03-Jan-21 14:11 34.210229 -119.078464 90 77ft 0kts
03-Jan-21 14:12 34.210690 -119.078334 6 78ft 4kts
03-Jan-21 14:13 34.210909 -119.080025 261 78ft 8kts
03-Jan-21 14:14 34.210946 -119.084342 288 74ft 9kts
03-Jan-21 14:15 34.212675 -119.084607 357 76ft 0kts
03-Jan-21 14:16 34.212983 -119.084604 2 76ft 6kts
03-Jan-21 14:17 34.216174 -119.099072 300 690ft 79kts
03-Jan-21 14:18 34.225892 -119.131023 288 1523ft 117kts
03-Jan-21 14:19 34.235740 -119.169744 288 2228ft 122kts
03-Jan-21 14:20 34.245743 -119.209531 288 2931ft 124kts
03-Jan-21 14:21 34.236432 -119.241751 174 3618ft 135kts
03-Jan-21 14:22 34.202805 -119.220549 151 4324ft 138kts
03-Jan-21 14:23 34.187020 -119.187823 51 5021ft 131kts
03-Jan-21 14:24 34.207210 -119.150333 53 5726ft 135kts
03-Jan-21 14:25 34.227798 -119.111498 53 6427ft 140kts
03-Jan-21 14:26 34.249484 -119.071057 53 6985ft 149kts
03-Jan-21 14:27 34.273413 -119.027671 51 7000ft 159kts
03-Jan-21 14:28 34.299348 -118.983938 50 7000ft 160kts
03-Jan-21 14:29 34.325105 -118.939619 52 7004ft 161kts
03-Jan-21 14:30 34.349225 -118.894025 54 7018ft 161kts
03-Jan-21 14:31 34.367906 -118.844122 65 7019ft 164kts
03-Jan-21 14:32 34.383578 -118.792226 64 7019ft 164kts
03-Jan-21 14:33 34.399263 -118.740541 64 7025ft 162kts
03-Jan-21 14:34 34.414477 -118.689596 64 7031ft 159kts
03-Jan-21 14:35 34.429889 -118.639907 63 7036ft 156kts
03-Jan-21 14:36 34.445597 -118.591321 61 7042ft 153kts
03-Jan-21 14:37 34.462328 -118.544382 60 7045ft 150kts
03-Jan-21 14:38 34.479487 -118.498267 60 7044ft 149kts
03-Jan-21 14:39 34.496491 -118.452604 60 7041ft 148kts
03-Jan-21 14:40 34.512313 -118.406311 62 7038ft 147kts
03-Jan-21 14:41 34.527922 -118.360528 62 7033ft 145kts
03-Jan-21 14:42 34.544229 -118.315893 60 7002ft 143kts
03-Jan-21 14:43 34.561043 -118.272091 60 7001ft 142kts
03-Jan-21 14:44 34.577713 -118.227899 60 6633ft 146kts
03-Jan-21 14:45 34.594822 -118.182712 60 6031ft 148kts
03-Jan-21 14:46 34.610645 -118.136613 63 5506ft 144kts
03-Jan-21 14:47 34.622719 -118.093198 66 5496ft 129kts
03-Jan-21 14:48 34.631747 -118.051560 80 5497ft 129kts
03-Jan-21 14:49 34.634626 -118.008304 80 5495ft 128kts
03-Jan-21 14:50 34.637098 -117.965146 80 5492ft 127kts
03-Jan-21 14:51 34.639595 -117.922239 80 5490ft 127kts
03-Jan-21 14:52 34.642309 -117.879428 78 5487ft 126kts
03-Jan-21 14:53 34.646078 -117.837121 78 5484ft 126kts
03-Jan-21 14:54 34.647491 -117.794714 112 5478ft 132kts
03-Jan-21 14:55 34.614947 -117.793808 209 5487ft 132kts
03-Jan-21 14:56 34.600185 -117.826863 247 5276ft 108kts
03-Jan-21 14:57 34.598409 -117.855205 279 4880ft 78kts
03-Jan-21 14:58 34.600869 -117.881674 289 4483ft 78kts
03-Jan-21 14:59 34.606096 -117.906728 291 4394ft 78kts
03-Jan-21 15:00 34.611608 -117.932698 289 4351ft 80kts
03-Jan-21 15:01 34.616894 -117.959798 286 4080ft 84kts
03-Jan-21 15:02 34.619746 -117.986617 282 3954ft 80kts
03-Jan-21 15:03 34.623153 -118.015058 283 3565ft 86kts
03-Jan-21 15:04 34.626566 -118.041073 287 3505ft 73kts
03-Jan-21 15:05 34.632168 -118.065587 293 3366ft 73kts
03-Jan-21 15:06 34.633004 -118.082728 347 2502ft 14kts

Navigation Log

Ident Type
Flight plan parsing failed, navigation log unavailable